createdAt,value
2018-04-01T00:05:25.443Z,1.02
2018-04-01T00:07:52.790Z,1.12
2018-04-01T00:10:20.298Z,2.07
2018-04-01T00:12:47.580Z,1.70
2018-04-01T00:15:14.540Z,2.58
2018-04-01T00:17:41.912Z,1.80
2018-04-01T00:20:09.173Z,2.40
2018-04-01T00:22:36.216Z,1.33
2018-04-01T00:25:03.225Z,3.25
2018-04-01T00:27:30.177Z,5.97
2018-04-01T00:29:57.178Z,3.17
2018-04-01T00:32:25.005Z,1.67
2018-04-01T00:34:51.976Z,1.58
2018-04-01T00:37:18.984Z,1.85
2018-04-01T00:39:45.961Z,1.00
2018-04-01T00:42:12.936Z,2.50
2018-04-01T00:44:39.910Z,2.22
2018-04-01T00:47:06.860Z,2.20
2018-04-01T00:49:33.846Z,1.45
2018-04-01T00:52:00.846Z,1.92
2018-04-01T00:54:27.807Z,1.48
2018-04-01T00:56:54.772Z,2.70
2018-04-01T00:59:21.745Z,2.20
2018-04-01T01:01:48.682Z,1.70
2018-04-01T01:04:15.620Z,1.80
2018-04-01T01:06:42.576Z,2.03
2018-04-01T01:09:09.521Z,1.77
2018-04-01T01:11:36.468Z,2.15
2018-04-01T01:14:03.426Z,2.00
2018-04-01T01:16:30.378Z,2.10
2018-04-01T01:18:57.330Z,2.37
2018-04-01T01:21:24.262Z,2.12
2018-04-01T01:23:51.213Z,1.87
2018-04-01T01:26:18.149Z,4.40
2018-04-01T01:28:45.095Z,2.20
2018-04-01T01:31:12.040Z,1.90
2018-04-01T01:33:38.996Z,1.65
2018-04-01T01:36:05.936Z,2.25
2018-04-01T01:38:32.881Z,1.40
2018-04-01T01:40:59.826Z,1.67
2018-04-01T01:43:26.770Z,1.75
2018-04-01T01:45:53.718Z,1.37
2018-04-01T01:48:20.691Z,1.58
2018-04-01T01:50:47.621Z,6.97
2018-04-01T01:53:14.556Z,1.45
2018-04-01T01:55:41.500Z,1.45
2018-04-01T01:58:08.446Z,1.15
2018-04-01T02:00:35.384Z,2.95
2018-04-01T02:03:02.383Z,1.00
2018-04-01T02:05:29.324Z,1.83
2018-04-01T02:07:56.256Z,2.87
2018-04-01T02:10:23.595Z,1.50
2018-04-01T02:12:50.541Z,2.80
2018-04-01T02:15:17.524Z,4.65
2018-04-01T02:17:44.461Z,2.83
2018-04-01T02:20:11.405Z,1.35
2018-04-01T02:22:38.336Z,1.17
2018-04-01T02:25:05.681Z,3.90
2018-04-01T02:27:33.013Z,1.85
2018-04-01T02:29:59.971Z,1.77
2018-04-01T02:32:26.919Z,1.35
2018-04-01T02:34:53.878Z,1.75
2018-04-01T02:37:20.824Z,1.62
2018-04-01T02:39:48.149Z,2.92
2018-04-01T02:42:15.102Z,0.95
2018-04-01T02:44:42.039Z,2.35
2018-04-01T02:47:08.983Z,1.95
2018-04-01T02:49:35.913Z,1.45
2018-04-01T02:52:02.883Z,2.03
2018-04-01T02:54:29.809Z,1.50
2018-04-01T02:56:56.757Z,2.65
2018-04-01T02:59:23.702Z,1.62
2018-04-01T03:01:50.640Z,2.08
2018-04-01T03:04:17.582Z,1.30
2018-04-01T03:06:44.532Z,1.33
2018-04-01T03:09:11.465Z,2.72
2018-04-01T03:11:38.460Z,0.80
2018-04-01T03:14:05.798Z,1.33
2018-04-01T03:16:32.738Z,1.58
2018-04-01T03:18:59.709Z,1.23
2018-04-01T03:21:26.648Z,0.90
2018-04-01T03:23:53.988Z,1.97
2018-04-01T03:26:20.923Z,4.93
2018-04-01T03:28:47.867Z,1.20
2018-04-01T03:31:14.799Z,1.00
2018-04-01T03:33:41.746Z,1.37
2018-04-01T03:36:08.685Z,1.15
2018-04-01T03:38:35.635Z,1.50
2018-04-01T03:41:02.573Z,1.35
2018-04-01T03:43:29.522Z,1.30
2018-04-01T03:45:56.466Z,2.35
2018-04-01T03:48:23.406Z,1.10
2018-04-01T03:50:50.344Z,1.30
2018-04-01T03:53:17.280Z,4.15
2018-04-01T03:55:44.228Z,0.85
2018-04-01T03:58:11.156Z,1.77
2018-04-01T04:00:38.097Z,2.78
2018-04-01T04:03:05.040Z,1.75
2018-04-01T04:05:31.992Z,1.52
2018-04-01T04:07:58.938Z,2.65
2018-04-01T04:10:25.882Z,2.85
2018-04-01T04:12:52.816Z,3.58
2018-04-01T04:15:19.772Z,3.10
2018-04-01T04:17:46.733Z,3.65
2018-04-01T04:20:13.688Z,1.83
2018-04-01T04:22:41.445Z,1.80
2018-04-01T04:25:08.401Z,3.40
2018-04-01T04:27:35.337Z,3.33
2018-04-01T04:30:02.284Z,1.37
2018-04-01T04:32:29.225Z,2.05
2018-04-01T04:34:56.173Z,2.78
2018-04-01T04:37:23.112Z,1.45
2018-04-01T04:39:50.085Z,1.98
2018-04-01T04:42:17.017Z,1.48
2018-04-01T04:44:43.966Z,2.78
2018-04-01T04:47:10.915Z,3.58
2018-04-01T04:49:37.862Z,3.72
2018-04-01T04:52:04.821Z,2.53
2018-04-01T04:54:31.754Z,2.30
2018-04-01T04:56:58.697Z,2.53
2018-04-01T04:59:25.636Z,1.62
2018-04-01T05:01:52.579Z,1.30
2018-04-01T05:04:19.512Z,1.50
2018-04-01T05:06:46.460Z,2.30
2018-04-01T05:09:13.396Z,1.77
2018-04-01T05:11:40.340Z,2.33
2018-04-01T05:14:07.284Z,1.30
2018-04-01T05:16:34.224Z,4.90
2018-04-01T05:19:01.161Z,1.60
2018-04-01T05:21:28.092Z,2.10
2018-04-01T05:23:55.049Z,1.65
2018-04-01T05:26:22.001Z,1.98
2018-04-01T05:28:48.951Z,2.03
2018-04-01T05:31:15.876Z,1.80
2018-04-01T05:33:42.825Z,4.07
2018-04-01T05:36:09.766Z,2.53
2018-04-01T05:38:36.712Z,1.87
2018-04-01T05:41:03.663Z,3.42
2018-04-01T05:43:30.599Z,3.87
2018-04-01T05:45:57.535Z,2.50
2018-04-01T05:48:24.480Z,6.18
2018-04-01T05:50:51.413Z,3.22
2018-04-01T05:53:18.748Z,3.03
2018-04-01T05:55:45.716Z,3.17
2018-04-01T05:58:12.652Z,2.67
2018-04-01T06:00:39.998Z,2.90
2018-04-01T06:03:07.328Z,4.62
2018-04-01T06:05:34.278Z,3.87
2018-04-01T06:08:01.237Z,6.00
2018-04-01T06:10:28.177Z,4.80
2018-04-01T06:12:55.149Z,4.87
2018-04-01T06:15:22.489Z,4.85
2018-04-01T06:17:49.820Z,4.97
2018-04-01T06:20:16.765Z,7.37
2018-04-01T06:22:43.701Z,4.35
2018-04-01T06:25:10.644Z,9.35
2018-04-01T06:27:37.594Z,5.53
2018-04-01T06:30:04.544Z,7.07
2018-04-01T06:32:31.487Z,5.90
2018-04-01T06:34:58.426Z,5.95
2018-04-01T06:37:25.361Z,6.40
2018-04-01T06:39:52.359Z,6.57
2018-04-01T06:42:19.263Z,8.65
2018-04-01T06:44:46.212Z,7.62
2018-04-01T06:47:13.157Z,6.22
2018-04-01T06:49:40.088Z,7.00
2018-04-01T06:52:07.042Z,8.65
2018-04-01T06:54:33.986Z,7.47
2018-04-01T06:57:00.973Z,4.32
2018-04-01T06:59:27.882Z,3.28
2018-04-01T07:01:54.822Z,2.65
2018-04-01T07:04:21.760Z,2.55
2018-04-01T07:06:48.718Z,3.12
2018-04-01T07:09:15.653Z,3.55
2018-04-01T07:11:42.602Z,4.00
2018-04-01T07:14:09.548Z,4.55
2018-04-01T07:16:36.484Z,6.53
2018-04-01T07:19:03.420Z,5.10
2018-04-01T07:21:30.360Z,6.55
2018-04-01T07:23:57.300Z,5.87
2018-04-01T07:26:24.268Z,11.20
2018-04-01T07:28:51.211Z,5.93
2018-04-01T07:31:18.159Z,9.15
2018-04-01T07:33:45.089Z,7.40
2018-04-01T07:36:12.042Z,5.85
2018-04-01T07:38:38.988Z,8.48
2018-04-01T07:41:05.921Z,6.35
2018-04-01T07:43:32.857Z,6.35
2018-04-01T07:51:30.043Z,6.90
2018-04-01T07:53:56.982Z,6.80
2018-04-01T07:56:23.932Z,9.73
2018-04-01T07:58:50.869Z,6.95
2018-04-01T08:01:17.804Z,6.95
2018-04-01T08:03:44.740Z,8.75
2018-04-01T08:06:11.695Z,5.78
2018-04-01T08:08:38.624Z,7.12
2018-04-01T08:11:05.951Z,9.43
2018-04-01T08:13:32.907Z,7.35
2018-04-01T08:16:00.233Z,9.85
2018-04-01T08:18:27.176Z,6.68
2018-04-01T08:20:54.113Z,7.12
2018-04-01T08:23:21.074Z,7.45
2018-04-01T08:25:48.040Z,7.22
2018-04-01T08:28:14.993Z,7.80
2018-04-01T08:30:42.329Z,6.53
2018-04-01T08:33:09.276Z,5.68
2018-04-01T08:35:36.216Z,7.47
2018-04-01T08:38:03.193Z,7.10
2018-04-01T08:40:30.524Z,6.30
2018-04-01T08:42:57.467Z,7.40
2018-04-01T08:45:24.415Z,7.50
2018-04-01T08:47:51.372Z,7.47
2018-04-01T08:50:18.700Z,5.68
2018-04-01T08:52:45.652Z,5.95
2018-04-01T08:55:12.616Z,6.50
2018-04-01T08:57:39.570Z,7.93
2018-04-01T09:00:06.896Z,8.90
2018-04-01T09:02:33.849Z,7.72
2018-04-01T09:05:00.793Z,8.40
2018-04-01T09:07:27.786Z,8.25
2018-04-01T09:09:54.733Z,6.70
2018-04-01T09:12:21.672Z,6.03
2018-04-01T09:14:48.646Z,7.85
2018-04-01T09:17:15.593Z,7.28
2018-04-01T09:19:42.501Z,7.82
2018-04-01T09:22:09.448Z,8.73
2018-04-01T09:24:36.389Z,5.22
2018-04-01T09:27:03.340Z,7.05
2018-04-01T09:29:30.271Z,6.90
2018-04-01T09:31:57.221Z,7.40
2018-04-01T09:34:24.161Z,9.02
2018-04-01T09:36:51.158Z,9.18
2018-04-01T09:39:18.112Z,8.55
2018-04-01T09:41:45.057Z,9.07
2018-04-01T09:44:12.002Z,8.27
2018-04-01T09:46:38.954Z,6.43
2018-04-01T09:49:05.891Z,11.05
2018-04-01T09:51:32.874Z,9.18
2018-04-01T09:53:59.876Z,7.47
2018-04-01T09:56:26.809Z,9.65
2018-04-01T09:58:53.762Z,10.70
2018-04-01T10:01:21.201Z,8.10
2018-04-01T10:03:48.640Z,8.57
2018-04-01T10:06:16.064Z,9.80
2018-04-01T10:08:43.924Z,7.75
2018-04-01T10:11:11.332Z,6.85
2018-04-01T10:13:38.766Z,9.20
2018-04-01T10:16:06.258Z,5.68
2018-04-01T10:18:33.718Z,7.37
2018-04-01T10:21:01.201Z,10.43
2018-04-01T10:23:28.656Z,6.22
2018-04-01T10:25:56.084Z,6.00
2018-04-01T10:28:23.545Z,6.78
2018-04-01T10:30:50.961Z,8.20
2018-04-01T10:33:18.412Z,2.87
2018-04-01T10:35:45.841Z,2.33
2018-04-01T10:38:13.280Z,3.40
2018-04-01T10:40:40.717Z,2.53
2018-04-01T10:43:08.143Z,2.53
2018-04-01T10:45:35.571Z,3.25
2018-04-01T10:48:03.003Z,3.10
2018-04-01T10:50:30.440Z,3.72
2018-04-01T10:52:57.874Z,3.85
2018-04-01T10:55:24.817Z,3.95
2018-04-01T10:57:51.752Z,6.13
2018-04-01T11:00:18.700Z,2.05
2018-04-01T11:02:45.655Z,2.05
2018-04-01T11:05:12.616Z,3.05
2018-04-01T11:07:39.558Z,2.50
2018-04-01T11:10:06.492Z,4.22
2018-04-01T11:12:33.432Z,3.45
2018-04-01T11:15:00.390Z,2.67
2018-04-01T11:17:27.324Z,3.08
2018-04-01T11:19:54.269Z,2.83
2018-04-01T11:22:21.208Z,3.70
2018-04-01T11:24:48.156Z,3.30
2018-04-01T11:27:15.092Z,2.65
2018-04-01T11:29:42.045Z,3.47
2018-04-01T11:32:08.992Z,3.23
2018-04-01T11:34:35.960Z,3.67
2018-04-01T11:37:02.897Z,3.40
2018-04-01T11:39:29.844Z,2.97
2018-04-01T11:41:56.791Z,3.67
2018-04-01T11:44:23.761Z,5.05
2018-04-01T11:46:50.726Z,3.75
2018-04-01T11:49:17.657Z,3.23
2018-04-01T11:51:44.612Z,2.47
2018-04-01T11:54:11.553Z,2.90
2018-04-01T12:05:28.059Z,3.07
2018-04-01T12:07:55.010Z,2.43
2018-04-01T12:10:22.853Z,3.40
2018-04-01T12:12:49.805Z,3.78
2018-04-01T12:15:16.764Z,4.70
2018-04-01T12:17:43.722Z,4.93
2018-04-01T12:20:11.469Z,3.92
2018-04-01T12:22:38.469Z,5.22
2018-04-01T12:25:05.442Z,4.68
2018-04-01T12:27:32.553Z,4.45
2018-04-01T12:29:59.539Z,4.80
2018-04-01T12:32:26.527Z,2.77
2018-04-01T12:34:53.777Z,3.07
2018-04-01T12:37:20.770Z,2.92
2018-04-01T12:39:47.769Z,2.60
2018-04-01T12:42:14.778Z,3.28
2018-04-01T12:44:41.736Z,3.33
2018-04-01T12:47:08.744Z,2.30
2018-04-01T12:49:35.710Z,3.28
2018-04-01T12:52:02.673Z,2.78
2018-04-01T12:54:29.656Z,3.50
2018-04-01T12:56:56.651Z,2.73
2018-04-01T12:59:23.632Z,3.33
2018-04-01T13:01:50.685Z,2.80
2018-04-01T13:04:17.600Z,3.27
2018-04-01T13:06:44.572Z,2.43
2018-04-01T13:09:11.549Z,4.07
2018-04-01T13:11:39.433Z,7.27
2018-04-01T13:14:06.414Z,3.12
2018-04-01T13:16:33.386Z,2.85
2018-04-01T13:19:00.686Z,3.80
2018-04-01T13:21:27.648Z,2.50
2018-04-01T13:23:54.621Z,3.13
2018-04-01T13:26:21.585Z,2.87
2018-04-01T13:28:53.510Z,2.73
2018-04-01T13:31:20.469Z,2.75
2018-04-01T13:33:47.416Z,1.93
2018-04-01T13:36:14.467Z,2.67
2018-04-01T13:38:41.451Z,2.23
2018-04-01T13:41:08.780Z,2.57
2018-04-01T13:43:36.296Z,2.70
2018-04-01T13:46:03.234Z,2.20
2018-04-01T13:48:30.193Z,3.63
2018-04-01T13:50:57.137Z,4.60
2018-04-01T13:53:24.077Z,4.83
2018-04-01T13:55:51.029Z,3.57
2018-04-01T13:58:18.025Z,3.63
2018-04-01T14:00:44.998Z,4.03
2018-04-01T14:03:11.945Z,4.03
2018-04-01T14:05:38.913Z,2.40
2018-04-01T14:08:05.856Z,6.33
2018-04-01T14:10:32.800Z,4.37
2018-04-01T14:12:59.741Z,4.60
2018-04-01T14:15:26.681Z,5.17
2018-04-01T14:17:53.621Z,5.80
2018-04-01T14:20:20.560Z,5.47
2018-04-01T14:22:47.496Z,4.53
2018-04-01T14:25:14.458Z,5.47
2018-04-01T14:27:41.400Z,5.07
2018-04-01T14:30:08.346Z,5.50
2018-04-01T14:32:35.302Z,6.05
2018-04-01T14:35:02.245Z,5.57
2018-04-01T14:37:29.188Z,4.70
2018-04-01T14:39:56.128Z,4.90
2018-04-01T14:42:23.117Z,4.73
2018-04-01T14:44:50.070Z,6.50
2018-04-01T14:47:17.003Z,4.37
2018-04-01T14:49:43.953Z,4.60
2018-04-01T14:52:10.900Z,4.12
2018-04-01T14:54:38.233Z,3.40
2018-04-01T14:57:05.185Z,3.47
2018-04-01T14:59:32.142Z,4.17
2018-04-01T15:01:59.073Z,2.80
2018-04-01T15:04:26.017Z,4.00
2018-04-01T15:06:52.952Z,4.93
2018-04-01T15:09:19.888Z,3.73
2018-04-01T15:11:46.848Z,4.43
2018-04-01T15:14:13.829Z,4.17
2018-04-01T15:16:40.740Z,3.67
2018-04-01T15:19:07.680Z,4.13
2018-04-01T15:21:34.627Z,4.50
2018-04-01T15:24:01.564Z,5.27
2018-04-01T15:26:28.493Z,5.17
2018-04-01T15:28:55.438Z,5.70
2018-04-01T15:31:22.459Z,4.90
2018-04-01T15:33:49.399Z,6.40
2018-04-01T15:36:16.337Z,6.40
2018-04-01T15:38:43.281Z,8.33
2018-04-01T15:41:10.228Z,6.50
2018-04-01T15:43:37.176Z,5.93
2018-04-01T15:46:04.133Z,3.30
2018-04-01T15:48:31.100Z,4.32
2018-04-01T15:50:58.148Z,3.50
2018-04-01T15:53:25.113Z,3.60
2018-04-01T15:55:52.053Z,3.85
2018-04-01T15:58:19.005Z,5.07
2018-04-01T16:00:45.945Z,4.93
2018-04-01T16:03:12.893Z,5.30
2018-04-01T16:05:39.837Z,5.60
2018-04-01T16:08:06.789Z,6.97
2018-04-01T16:10:33.725Z,5.35
2018-04-01T16:13:00.669Z,6.60
2018-04-01T16:15:27.616Z,6.35
2018-04-01T16:17:54.843Z,8.55
2018-04-01T16:20:21.785Z,8.40
2018-04-01T16:22:48.731Z,9.02
2018-04-01T16:25:15.680Z,10.32
2018-04-01T16:27:42.613Z,10.35
2018-04-01T16:30:09.566Z,10.07
2018-04-01T16:32:36.496Z,7.00
2018-04-01T16:35:03.456Z,9.20
2018-04-01T16:37:30.400Z,6.47
2018-04-01T16:39:57.345Z,7.30
2018-04-01T16:42:24.309Z,10.60
2018-04-01T16:44:51.261Z,9.45
2018-04-01T16:47:18.289Z,8.13
2018-04-01T16:49:45.254Z,7.47
2018-04-01T16:52:12.221Z,7.60
2018-04-01T16:54:39.193Z,8.20
2018-04-01T16:57:06.162Z,10.60
2018-04-01T16:59:34.678Z,11.77
2018-04-01T17:02:03.205Z,9.32
2018-04-01T17:04:30.190Z,10.63
2018-04-01T17:06:58.281Z,10.38
2018-04-01T17:09:26.273Z,11.35
2018-04-01T17:11:53.134Z,8.45
2018-04-01T17:14:21.224Z,12.18
2018-04-01T17:16:48.170Z,9.50
2018-04-01T17:19:16.250Z,9.57
2018-04-01T17:21:45.222Z,10.48
2018-04-01T17:24:13.052Z,9.73
2018-04-01T17:26:41.334Z,12.20
2018-04-01T17:29:09.538Z,11.05
2018-04-01T17:31:36.533Z,13.32
2018-04-01T17:34:05.275Z,9.90
2018-04-01T17:36:33.343Z,11.80
2018-04-01T17:39:00.310Z,11.45
2018-04-01T17:41:28.690Z,11.38
2018-04-01T17:43:57.781Z,11.27
2018-04-01T17:46:26.503Z,11.40
2018-04-01T17:48:54.359Z,10.80
2018-04-01T17:51:21.564Z,9.70
2018-04-01T17:53:50.869Z,11.15
2018-04-01T17:56:17.831Z,10.40
2018-04-01T17:58:44.828Z,12.95
2018-04-01T18:01:12.718Z,12.23
2018-04-01T18:03:40.548Z,9.57
2018-04-01T18:06:07.465Z,12.30
2018-04-01T18:08:37.545Z,10.73
2018-04-01T18:11:07.119Z,11.95
2018-04-01T18:13:35.825Z,9.83
2018-04-01T18:16:04.380Z,11.77
2018-04-01T18:18:32.252Z,13.05
2018-04-01T18:20:59.213Z,12.80
2018-04-01T18:23:27.638Z,15.48
2018-04-01T18:25:54.601Z,10.35
2018-04-01T18:28:21.591Z,12.60
2018-04-01T18:59:35.433Z,14.77
2018-04-01T19:05:00.026Z,11.60
2018-04-01T19:07:27.017Z,14.75
2018-04-01T19:09:59.178Z,19.15
2018-04-01T19:12:27.512Z,23.60
2018-04-01T19:14:57.432Z,21.73
2018-04-01T19:17:28.476Z,18.98
2018-04-01T19:22:43.361Z,15.37
2018-04-01T19:25:15.730Z,17.15
2018-04-01T19:27:57.243Z,22.43
2018-04-01T19:30:26.463Z,18.90
2018-04-01T19:32:55.235Z,16.92
2018-04-01T19:35:25.266Z,19.02
2018-04-01T19:37:57.083Z,17.45
2018-04-01T19:40:24.574Z,14.27
2018-04-01T19:42:52.333Z,13.77
2018-04-01T19:45:22.048Z,12.80
2018-04-01T19:47:50.482Z,14.35
2018-04-01T19:50:19.479Z,14.30
2018-04-01T19:52:59.957Z,13.25
2018-04-01T19:55:34.480Z,12.88
2018-04-01T19:58:05.913Z,12.73
2018-04-01T20:00:33.368Z,13.57
2018-04-01T20:03:04.540Z,17.45
2018-04-01T20:05:39.362Z,14.65
2018-04-01T20:08:07.541Z,13.60
2018-04-01T20:10:39.511Z,13.60
2018-04-01T20:13:07.243Z,11.02
2018-04-01T20:15:37.138Z,12.10
2018-04-01T20:18:08.771Z,16.85
2018-04-01T20:20:49.851Z,18.62
2018-04-01T20:23:17.889Z,13.95
2018-04-01T20:25:48.377Z,13.90
2018-04-01T20:30:54.585Z,14.48
2018-04-01T20:33:30.083Z,14.25
2018-04-01T20:35:59.041Z,15.45
2018-04-01T20:38:27.077Z,16.17
2018-04-01T20:40:58.734Z,24.08
2018-04-01T20:43:29.317Z,22.17
2018-04-01T20:46:01.637Z,15.80
2018-04-01T20:48:30.717Z,17.08
2018-04-01T20:51:07.407Z,19.10
2018-04-01T20:53:36.044Z,16.75
2018-04-01T20:56:04.515Z,20.45
2018-04-01T20:58:37.445Z,20.60
2018-04-01T21:01:10.632Z,19.17
2018-04-01T21:03:42.836Z,17.17
2018-04-01T21:06:18.665Z,21.83
2018-04-01T21:08:53.607Z,16.05
2018-04-01T21:11:25.928Z,20.83
2018-04-01T21:13:57.055Z,16.15
2018-04-01T21:16:26.693Z,15.93
2018-04-01T21:18:58.698Z,18.25
2018-04-01T21:21:28.739Z,20.20
2018-04-01T21:23:59.013Z,19.42
2018-04-01T21:26:26.590Z,19.87
2018-04-01T21:28:54.492Z,16.98
2018-04-01T21:31:33.489Z,15.85
2018-04-01T21:34:01.014Z,18.35
2018-04-01T21:36:29.969Z,21.25
2018-04-01T21:38:58.809Z,17.45
2018-04-01T21:41:27.594Z,18.85
2018-04-01T21:43:57.953Z,19.48
2018-04-01T21:49:18.437Z,18.90
2018-04-01T21:51:57.171Z,21.70
2018-04-01T21:54:28.398Z,18.90
2018-04-01T21:57:00.383Z,22.13
2018-04-01T21:59:30.476Z,26.35
2018-04-01T22:04:36.280Z,30.42
2018-04-01T22:07:03.790Z,19.73
2018-04-01T22:09:31.242Z,18.70
2018-04-01T22:12:01.692Z,21.60
2018-04-01T22:14:32.057Z,21.12
2018-04-01T22:17:00.964Z,23.12
2018-04-01T22:19:30.214Z,22.23
2018-04-01T22:21:59.966Z,24.87
2018-04-01T22:24:30.080Z,24.70
2018-04-01T22:26:58.223Z,26.50
2018-04-01T22:29:25.909Z,22.50
2018-04-01T22:32:07.015Z,24.00
2018-04-01T22:34:40.183Z,25.70
2018-04-01T22:37:12.025Z,29.73
2018-04-01T22:39:40.559Z,23.85
2018-04-01T22:42:08.082Z,25.65
2018-04-01T22:44:36.421Z,26.30
2018-04-01T22:47:04.837Z,26.40
2018-04-01T22:52:06.614Z,29.00
2018-04-01T23:00:42.857Z,26.65
2018-04-01T23:03:14.580Z,27.80
2018-04-01T23:05:44.080Z,26.85
2018-04-01T23:08:14.155Z,21.75
2018-04-01T23:10:42.326Z,25.60
2018-04-01T23:13:10.659Z,32.50
2018-04-01T23:15:40.372Z,27.30
2018-04-01T23:20:54.400Z,22.20
2018-04-01T23:25:59.510Z,25.30
2018-04-01T23:28:28.904Z,28.65
2018-04-01T23:31:01.225Z,25.37
2018-04-01T23:33:28.830Z,29.42
2018-04-01T23:35:58.450Z,28.23
2018-04-01T23:38:27.455Z,19.95
2018-04-01T23:40:58.875Z,31.90
2018-04-01T23:43:26.310Z,26.10
2018-04-01T23:45:53.750Z,30.25
2018-04-01T23:48:21.194Z,29.52
2018-04-01T23:50:49.272Z,25.95
2018-04-01T23:53:16.700Z,23.90
2018-04-01T23:55:44.538Z,26.60
2018-04-01T23:58:11.972Z,32.28
